createdAt,value
2019-04-29T00:00:26.478Z,12.48
2019-04-29T00:02:56.981Z,12.43
2019-04-29T00:05:26.594Z,12.41
2019-04-29T00:07:57.152Z,12.50
2019-04-29T00:10:28.953Z,12.65
2019-04-29T00:12:59.529Z,12.71
2019-04-29T00:15:43.320Z,12.78
2019-04-29T00:18:15.389Z,12.78
2019-04-29T00:20:47.591Z,12.87
2019-04-29T00:23:17.072Z,12.73
2019-04-29T00:25:46.643Z,12.80
2019-04-29T00:28:16.224Z,12.78
2019-04-29T00:30:46.682Z,12.70
2019-04-29T00:33:16.080Z,12.82
2019-04-29T00:35:48.313Z,12.74
2019-04-29T00:38:20.922Z,13.00
2019-04-29T00:40:52.027Z,13.07
2019-04-29T00:43:25.810Z,13.16
2019-04-29T00:45:59.975Z,13.31
2019-04-29T00:48:32.885Z,13.36
2019-04-29T00:51:03.823Z,13.31
2019-04-29T00:53:33.506Z,13.48
2019-04-29T00:56:04.046Z,13.35
2019-04-29T00:58:34.612Z,13.45
2019-04-29T01:01:04.178Z,13.52
2019-04-29T01:03:33.456Z,13.55
2019-04-29T01:06:03.853Z,13.65
2019-04-29T01:08:34.355Z,13.54
2019-04-29T01:11:04.866Z,13.43
2019-04-29T01:13:35.287Z,13.48
2019-04-29T01:16:06.106Z,13.58
2019-04-29T01:18:37.800Z,13.72
2019-04-29T01:21:08.755Z,13.71
2019-04-29T01:23:38.087Z,13.71
2019-04-29T01:26:24.077Z,13.62
2019-04-29T01:28:57.759Z,13.69
2019-04-29T01:31:28.726Z,13.76
2019-04-29T01:33:59.136Z,13.89
2019-04-29T01:36:31.178Z,13.90
2019-04-29T01:39:02.261Z,13.79
2019-04-29T01:41:46.404Z,13.81
2019-04-29T01:44:17.470Z,13.67
2019-04-29T01:46:46.953Z,13.74
2019-04-29T01:49:16.400Z,13.71
2019-04-29T01:51:45.827Z,13.74
2019-04-29T01:54:16.560Z,13.79
2019-04-29T01:56:46.015Z,13.80
2019-04-29T01:59:15.411Z,13.92
2019-04-29T02:01:44.180Z,13.89
2019-04-29T02:04:14.718Z,13.90
2019-04-29T02:06:45.391Z,13.83
2019-04-29T02:09:23.161Z,13.90
2019-04-29T02:11:53.887Z,14.04
2019-04-29T02:14:24.808Z,14.01
2019-04-29T02:16:58.339Z,14.02
2019-04-29T02:19:27.707Z,13.94
2019-04-29T02:22:08.966Z,13.96
2019-04-29T02:24:40.265Z,13.92
2019-04-29T02:27:09.680Z,13.90
2019-04-29T02:29:40.225Z,14.03
2019-04-29T02:32:09.650Z,14.00
2019-04-29T02:34:39.186Z,14.09
2019-04-29T02:37:11.190Z,14.26
2019-04-29T02:39:48.006Z,14.12
2019-04-29T02:42:23.386Z,14.18
2019-04-29T02:44:54.449Z,13.91
2019-04-29T02:47:23.255Z,14.05
2019-04-29T02:49:53.773Z,14.12
2019-04-29T02:52:24.199Z,14.25
2019-04-29T02:54:56.353Z,14.13
2019-04-29T02:57:34.077Z,14.25
2019-04-29T03:00:09.077Z,14.27
2019-04-29T03:02:41.158Z,14.36
2019-04-29T03:05:18.254Z,14.25
2019-04-29T03:07:48.875Z,14.39
2019-04-29T03:10:19.469Z,14.41
2019-04-29T03:12:48.891Z,14.41
2019-04-29T03:15:33.204Z,14.25
2019-04-29T03:18:02.841Z,14.34
2019-04-29T03:20:35.213Z,14.44
2019-04-29T03:23:12.222Z,14.34
2019-04-29T03:25:41.974Z,14.29
2019-04-29T03:28:11.421Z,14.36
2019-04-29T03:30:41.147Z,14.39
2019-04-29T03:33:10.578Z,14.11
2019-04-29T03:35:41.191Z,14.21
2019-04-29T03:38:13.777Z,14.29
2019-04-29T03:40:44.295Z,14.24
2019-04-29T03:43:13.124Z,14.38
2019-04-29T03:45:43.426Z,14.23
2019-04-29T03:48:12.728Z,14.20
2019-04-29T03:50:43.717Z,14.07
2019-04-29T03:53:13.016Z,14.01
2019-04-29T03:55:43.376Z,14.10
2019-04-29T03:58:12.215Z,14.19
2019-04-29T04:00:44.302Z,14.28
2019-04-29T04:03:30.692Z,14.40
2019-04-29T04:06:13.314Z,14.48
2019-04-29T04:08:44.660Z,14.55
2019-04-29T04:11:15.054Z,14.46
2019-04-29T04:13:46.648Z,14.47
2019-04-29T04:16:18.693Z,14.57
2019-04-29T04:18:47.165Z,14.48
2019-04-29T04:21:16.683Z,14.55
2019-04-29T04:23:47.203Z,14.58
2019-04-29T04:26:17.599Z,14.63
2019-04-29T04:28:48.104Z,14.62
2019-04-29T04:31:18.733Z,14.55
2019-04-29T04:33:50.309Z,14.83
2019-04-29T04:36:19.682Z,14.85
2019-04-29T04:38:49.155Z,14.77
2019-04-29T04:41:19.816Z,15.03
2019-04-29T04:43:49.119Z,14.94
2019-04-29T04:46:18.658Z,15.01
2019-04-29T04:48:50.458Z,15.15
2019-04-29T04:51:19.886Z,15.21
2019-04-29T04:53:50.179Z,15.33
2019-04-29T04:56:19.013Z,15.24
2019-04-29T04:58:49.527Z,15.37
2019-04-29T05:01:20.031Z,15.44
2019-04-29T05:03:50.446Z,15.55
2019-04-29T05:06:20.820Z,15.66
2019-04-29T05:08:51.151Z,15.80
2019-04-29T05:11:20.728Z,15.82
2019-04-29T05:13:51.330Z,15.94
2019-04-29T05:16:23.091Z,16.05
2019-04-29T05:18:51.918Z,16.24
2019-04-29T05:21:21.408Z,16.28
2019-04-29T05:23:50.874Z,16.44
2019-04-29T05:26:21.267Z,16.49
2019-04-29T05:28:50.668Z,16.48
2019-04-29T05:31:21.033Z,16.68
2019-04-29T05:33:51.446Z,16.82
2019-04-29T05:36:25.039Z,16.66
2019-04-29T05:38:57.054Z,16.70
2019-04-29T05:41:30.158Z,16.84
2019-04-29T05:44:06.990Z,16.87
2019-04-29T05:46:40.716Z,16.99
2019-04-29T05:49:12.776Z,16.84
2019-04-29T05:51:44.857Z,17.05
2019-04-29T05:54:26.920Z,17.09
2019-04-29T05:56:54.064Z,17.29
2019-04-29T05:59:24.859Z,17.45
2019-04-29T06:01:57.235Z,17.52
2019-04-29T06:04:28.705Z,17.52
2019-04-29T06:06:58.376Z,17.48
2019-04-29T06:09:31.146Z,17.54
2019-04-29T06:12:00.011Z,17.93
2019-04-29T06:14:30.642Z,17.70
2019-04-29T06:17:02.918Z,17.97
2019-04-29T06:19:35.112Z,18.16
2019-04-29T06:22:05.704Z,18.21
2019-04-29T06:24:36.858Z,18.29
2019-04-29T06:27:08.184Z,18.28
2019-04-29T06:29:37.586Z,18.22
2019-04-29T06:32:08.055Z,18.59
2019-04-29T06:34:40.022Z,18.51
2019-04-29T06:37:09.075Z,18.62
2019-04-29T06:39:42.172Z,18.69
2019-04-29T06:42:11.594Z,18.77
2019-04-29T06:44:44.474Z,18.63
2019-04-29T06:47:17.010Z,18.52
2019-04-29T06:49:50.506Z,18.91
2019-04-29T06:52:19.806Z,19.08
2019-04-29T06:54:50.178Z,19.22
2019-04-29T06:57:20.569Z,18.99
2019-04-29T06:59:54.457Z,19.08
2019-04-29T07:02:22.484Z,18.98
2019-04-29T07:04:51.828Z,18.91
2019-04-29T07:07:22.208Z,19.29
2019-04-29T07:09:52.598Z,19.43
2019-04-29T07:12:23.003Z,19.74
2019-04-29T07:14:52.383Z,19.81
2019-04-29T07:17:25.456Z,20.26
2019-04-29T07:19:57.476Z,20.33
2019-04-29T07:22:31.064Z,21.00
2019-04-29T07:25:00.398Z,20.86
2019-04-29T07:27:29.823Z,21.25
2019-04-29T07:30:01.835Z,20.93
2019-04-29T07:32:32.577Z,20.89
2019-04-29T07:35:05.884Z,21.04
2019-04-29T07:37:35.845Z,21.87
2019-04-29T07:40:09.140Z,21.69
2019-04-29T07:42:43.332Z,21.64
2019-04-29T07:45:43.550Z,20.75
2019-04-29T07:48:06.484Z,20.31
2019-04-29T07:50:35.700Z,20.73
2019-04-29T07:53:07.303Z,20.80
2019-04-29T07:55:37.708Z,21.39
2019-04-29T07:58:08.780Z,21.43
2019-04-29T08:00:39.368Z,21.52
2019-04-29T08:03:10.353Z,21.34
2019-04-29T08:05:43.701Z,21.29
2019-04-29T08:08:20.864Z,21.27
2019-04-29T08:10:56.023Z,21.57
2019-04-29T08:13:23.856Z,21.76
2019-04-29T08:15:53.177Z,21.62
2019-04-29T08:18:23.683Z,22.31
2019-04-29T08:20:53.173Z,22.88
2019-04-29T08:23:25.139Z,23.35
2019-04-29T08:25:57.352Z,22.91
2019-04-29T08:28:26.722Z,22.90
2019-04-29T08:30:58.032Z,23.07
2019-04-29T08:33:29.711Z,22.56
2019-04-29T08:36:01.012Z,22.99
2019-04-29T08:38:31.682Z,23.34
2019-04-29T08:41:01.101Z,23.02
2019-04-29T08:43:47.391Z,22.74
2019-04-29T08:46:28.538Z,22.95
2019-04-29T08:49:01.014Z,23.19
2019-04-29T08:51:31.965Z,22.84
2019-04-29T08:54:03.954Z,23.05
2019-04-29T08:56:33.342Z,23.04
2019-04-29T08:59:03.847Z,22.38
2019-04-29T09:01:35.826Z,23.24
2019-04-29T09:04:08.377Z,23.20
2019-04-29T09:06:40.768Z,23.01
2019-04-29T09:09:28.122Z,23.45
2019-04-29T09:11:43.564Z,24.68
2019-04-29T09:14:13.340Z,24.46
2019-04-29T09:16:43.748Z,24.78
2019-04-29T09:19:14.162Z,24.32
2019-04-29T09:21:44.558Z,23.90
2019-04-29T09:24:14.039Z,23.45
2019-04-29T09:26:46.103Z,23.86
2019-04-29T09:29:32.589Z,22.61
2019-04-29T09:32:05.813Z,23.05
2019-04-29T09:34:36.323Z,22.91
2019-04-29T09:37:06.160Z,23.50
2019-04-29T09:39:43.253Z,23.26
2019-04-29T09:42:13.192Z,22.85
2019-04-29T09:44:57.908Z,23.05
2019-04-29T09:47:30.598Z,22.94
2019-04-29T09:50:01.033Z,23.46
2019-04-29T09:52:31.423Z,22.81
2019-04-29T09:55:04.017Z,22.62
2019-04-29T09:57:35.355Z,22.36
2019-04-29T10:00:12.966Z,22.53
2019-04-29T10:02:44.000Z,22.47
2019-04-29T10:05:22.046Z,22.06
2019-04-29T10:07:52.539Z,21.89
2019-04-29T10:10:23.170Z,21.87
2019-04-29T10:12:55.544Z,21.68
2019-04-29T10:15:27.478Z,21.89
2019-04-29T10:18:02.106Z,21.43
2019-04-29T10:20:39.176Z,21.17
2019-04-29T10:23:08.494Z,21.64
2019-04-29T10:25:38.860Z,21.63
2019-04-29T10:28:08.379Z,21.99
2019-04-29T10:30:38.733Z,22.58
2019-04-29T10:33:12.827Z,21.36
2019-04-29T10:35:44.739Z,21.33
2019-04-29T10:38:12.763Z,21.74
2019-04-29T10:40:47.866Z,21.96
2019-04-29T10:43:24.643Z,22.87
2019-04-29T10:46:04.575Z,21.58
2019-04-29T10:48:35.752Z,22.49
2019-04-29T10:51:06.454Z,22.08
2019-04-29T10:53:37.459Z,21.89
2019-04-29T10:56:07.072Z,22.53
2019-04-29T10:58:37.527Z,22.78
2019-04-29T11:01:29.611Z,21.97
2019-04-29T11:04:02.979Z,20.93
2019-04-29T11:06:35.649Z,19.78
2019-04-29T11:09:14.481Z,19.99
2019-04-29T11:11:44.615Z,20.58
2019-04-29T11:14:14.018Z,20.27
2019-04-29T11:16:46.555Z,20.30
2019-04-29T11:19:14.718Z,19.89
2019-04-29T11:21:47.416Z,19.33
2019-04-29T11:24:21.146Z,19.20
2019-04-29T11:26:53.342Z,19.91
2019-04-29T11:29:27.318Z,20.15
2019-04-29T11:32:06.006Z,20.11
2019-04-29T11:34:40.654Z,20.61
2019-04-29T11:37:13.744Z,21.37
2019-04-29T11:39:46.295Z,21.22
2019-04-29T11:42:17.210Z,21.70
2019-04-29T11:44:49.576Z,21.79
2019-04-29T11:47:20.854Z,21.06
2019-04-29T11:52:23.686Z,21.45
2019-04-29T11:54:57.571Z,21.81
2019-04-29T11:57:40.351Z,21.61
2019-04-29T12:00:20.598Z,21.08
2019-04-29T12:02:52.616Z,20.78
2019-04-29T12:05:24.575Z,21.27
2019-04-29T12:07:55.407Z,21.23
2019-04-29T12:10:25.341Z,21.41
2019-04-29T12:12:54.972Z,21.70
2019-04-29T12:15:39.158Z,21.83
2019-04-29T12:18:12.791Z,21.19
2019-04-29T12:20:53.861Z,20.52
2019-04-29T12:23:23.267Z,19.95
2019-04-29T12:25:53.838Z,19.48
2019-04-29T12:28:23.214Z,20.05
2019-04-29T12:30:53.641Z,20.28
2019-04-29T12:33:27.131Z,20.26
2019-04-29T12:36:03.422Z,20.36
2019-04-29T12:38:40.031Z,20.16
2019-04-29T12:41:29.662Z,20.10
2019-04-29T12:44:03.018Z,20.38
2019-04-29T12:46:42.865Z,21.11
2019-04-29T12:49:13.802Z,21.17
2019-04-29T12:51:45.944Z,20.78
2019-04-29T12:54:15.335Z,20.86
2019-04-29T12:56:47.713Z,20.79
2019-04-29T12:59:16.752Z,20.44
2019-04-29T13:02:01.286Z,19.99
2019-04-29T13:04:39.170Z,19.93
2019-04-29T13:07:13.850Z,19.98
2019-04-29T13:09:56.535Z,20.15
2019-04-29T13:12:30.143Z,20.05
2019-04-29T13:15:03.340Z,20.13
2019-04-29T13:18:02.170Z,20.06
2019-04-29T13:20:20.551Z,20.32
2019-04-29T13:22:49.924Z,20.27
2019-04-29T13:25:20.937Z,19.87
2019-04-29T13:27:50.450Z,20.40
2019-04-29T13:30:19.784Z,20.34
2019-04-29T13:32:50.031Z,20.63
2019-04-29T13:35:21.844Z,21.05
2019-04-29T13:37:50.402Z,20.83
2019-04-29T13:40:20.565Z,20.60
2019-04-29T13:42:51.120Z,20.52
2019-04-29T13:45:25.267Z,20.28
2019-04-29T13:48:13.405Z,19.88
2019-04-29T13:50:51.551Z,19.31
2019-04-29T13:53:20.950Z,18.94
2019-04-29T13:55:56.117Z,18.70
2019-04-29T13:58:27.181Z,18.55
2019-04-29T14:00:59.431Z,18.18
2019-04-29T14:03:42.017Z,17.95
2019-04-29T14:06:14.364Z,18.16
2019-04-29T14:08:43.296Z,18.73
2019-04-29T14:11:15.286Z,18.25
2019-04-29T14:13:48.342Z,18.31
2019-04-29T14:16:19.325Z,18.07
2019-04-29T14:18:50.333Z,18.19
2019-04-29T14:21:19.707Z,18.47
2019-04-29T14:23:48.960Z,18.35
2019-04-29T14:26:18.351Z,18.37
2019-04-29T14:28:47.788Z,18.53
2019-04-29T14:31:18.611Z,18.77
2019-04-29T14:34:00.311Z,19.02
2019-04-29T14:36:28.712Z,18.81
2019-04-29T14:39:00.591Z,18.58
2019-04-29T14:41:30.691Z,18.82
2019-04-29T14:44:10.363Z,18.76
2019-04-29T14:46:48.093Z,18.60
2019-04-29T14:49:20.148Z,18.17
2019-04-29T14:51:50.668Z,18.33
2019-04-29T14:54:21.178Z,18.43
2019-04-29T14:56:50.559Z,18.36
2019-04-29T14:59:20.309Z,18.23
2019-04-29T15:01:57.945Z,18.16
2019-04-29T15:04:32.190Z,17.85
2019-04-29T15:07:02.566Z,17.43
2019-04-29T15:09:45.908Z,17.27
2019-04-29T15:12:21.734Z,17.17
2019-04-29T15:14:54.633Z,17.33
2019-04-29T15:17:32.540Z,17.39
2019-04-29T15:20:06.299Z,17.41
2019-04-29T15:22:36.766Z,17.15
2019-04-29T15:25:08.760Z,17.46
2019-04-29T15:27:39.275Z,17.31
2019-04-29T15:30:11.002Z,17.49
2019-04-29T15:32:41.454Z,17.45
2019-04-29T15:35:11.847Z,17.68
2019-04-29T15:37:43.192Z,17.86
2019-04-29T15:40:13.867Z,17.70
2019-04-29T15:42:48.406Z,17.86
2019-04-29T15:45:14.769Z,17.74
2019-04-29T15:47:45.646Z,17.26
2019-04-29T15:50:19.098Z,17.36
2019-04-29T15:52:48.445Z,16.89
2019-04-29T15:55:19.306Z,16.85
2019-04-29T15:57:50.148Z,17.03
2019-04-29T16:00:23.031Z,17.13
2019-04-29T16:02:52.995Z,17.04
2019-04-29T16:05:25.174Z,17.14
2019-04-29T16:08:01.781Z,17.30
2019-04-29T16:10:51.769Z,17.53
2019-04-29T16:13:22.506Z,17.43
2019-04-29T16:15:52.290Z,17.33
2019-04-29T16:18:21.651Z,16.66
2019-04-29T16:20:54.045Z,17.09
2019-04-29T16:23:24.128Z,16.90
2019-04-29T16:25:55.473Z,16.84
2019-04-29T16:28:31.560Z,16.54
2019-04-29T16:31:05.220Z,17.09
2019-04-29T16:33:32.269Z,16.95
2019-04-29T16:36:04.966Z,16.99
2019-04-29T16:38:32.669Z,17.13
2019-04-29T16:41:04.805Z,17.04
2019-04-29T16:43:38.654Z,17.08
2019-04-29T16:46:09.724Z,16.78
2019-04-29T16:48:41.042Z,16.95
2019-04-29T16:51:14.586Z,16.90
2019-04-29T16:53:40.932Z,16.86
2019-04-29T16:56:15.998Z,16.48
2019-04-29T16:58:44.429Z,16.55
2019-04-29T17:01:15.421Z,16.41
2019-04-29T17:03:47.125Z,16.64
2019-04-29T17:06:16.821Z,16.74
2019-04-29T17:09:04.998Z,16.81
2019-04-29T17:11:39.013Z,16.72
2019-04-29T17:14:10.188Z,16.81
2019-04-29T17:16:40.556Z,16.83
2019-04-29T17:19:11.067Z,16.85
2019-04-29T17:21:41.469Z,17.10
2019-04-29T17:24:10.848Z,16.89
2019-04-29T17:27:00.770Z,16.82
2019-04-29T17:29:45.438Z,16.70
2019-04-29T17:32:12.223Z,16.29
2019-04-29T17:34:58.207Z,16.68
2019-04-29T17:37:16.425Z,16.58
2019-04-29T17:39:46.794Z,16.60
2019-04-29T17:42:17.409Z,16.67
2019-04-29T17:44:49.282Z,16.73
2019-04-29T17:47:30.125Z,16.73
2019-04-29T17:50:02.025Z,16.50
2019-04-29T17:52:34.904Z,16.69
2019-04-29T17:55:09.782Z,16.43
2019-04-29T17:57:45.780Z,16.55
2019-04-29T18:00:17.963Z,16.54
2019-04-29T18:02:52.554Z,16.34
2019-04-29T18:05:34.341Z,16.45
2019-04-29T18:08:05.324Z,16.49
2019-04-29T18:10:45.801Z,16.50
2019-04-29T18:13:17.279Z,16.36
2019-04-29T18:15:59.441Z,16.42
2019-04-29T18:18:20.904Z,16.12
2019-04-29T18:20:55.137Z,15.97
2019-04-29T18:23:47.129Z,16.29
2019-04-29T18:26:25.853Z,16.20
2019-04-29T18:28:56.871Z,16.22
2019-04-29T18:31:30.574Z,16.06
2019-04-29T18:33:59.385Z,16.13
2019-04-29T18:36:28.823Z,16.24
2019-04-29T18:38:59.201Z,16.24
2019-04-29T18:41:31.154Z,16.14
2019-04-29T18:44:04.871Z,15.90
2019-04-29T18:46:35.333Z,16.13
2019-04-29T18:49:07.163Z,16.18
2019-04-29T18:51:37.794Z,16.28
2019-04-29T18:54:07.221Z,16.24
2019-04-29T18:56:37.880Z,16.11
2019-04-29T18:59:07.141Z,16.18
2019-04-29T19:01:37.533Z,16.10
2019-04-29T19:04:17.392Z,16.06
2019-04-29T19:06:45.499Z,16.04
2019-04-29T19:09:18.513Z,15.97
2019-04-29T19:11:47.929Z,15.91
2019-04-29T19:14:20.524Z,15.85
2019-04-29T19:16:47.799Z,15.87
2019-04-29T19:19:18.794Z,15.83
2019-04-29T19:21:48.714Z,15.92
2019-04-29T19:24:19.227Z,16.13
2019-04-29T19:26:53.898Z,16.22
2019-04-29T19:29:20.916Z,16.41
2019-04-29T19:31:50.320Z,16.19
2019-04-29T19:34:20.841Z,16.34
2019-04-29T19:36:50.617Z,16.27
2019-04-29T19:39:21.695Z,16.29
2019-04-29T19:41:51.904Z,16.21
2019-04-29T19:44:26.470Z,16.21
2019-04-29T19:46:56.973Z,15.96
2019-04-29T19:49:26.727Z,16.13
2019-04-29T19:51:56.100Z,16.01
2019-04-29T19:54:28.452Z,16.16
2019-04-29T19:57:03.302Z,16.21
2019-04-29T19:59:29.538Z,16.33
2019-04-29T20:02:05.507Z,16.29
2019-04-29T20:04:39.069Z,16.49
2019-04-29T20:07:10.558Z,16.49
2019-04-29T20:09:42.356Z,16.45
2019-04-29T20:12:17.586Z,16.54
2019-04-29T20:14:47.718Z,16.49
2019-04-29T20:17:30.793Z,16.78
2019-04-29T20:20:10.029Z,16.43
2019-04-29T20:22:43.436Z,16.63
2019-04-29T20:25:11.921Z,16.90
2019-04-29T20:27:43.142Z,16.79
2019-04-29T20:30:18.842Z,16.71
2019-04-29T20:32:46.264Z,16.72
2019-04-29T20:35:18.337Z,16.93
2019-04-29T20:37:55.656Z,16.75
2019-04-29T20:40:25.389Z,16.67
2019-04-29T20:42:53.599Z,16.85
2019-04-29T20:45:28.570Z,16.91
2019-04-29T20:47:56.215Z,16.79
2019-04-29T20:50:26.466Z,16.71
2019-04-29T20:53:02.556Z,16.78
2019-04-29T20:55:36.775Z,16.67
2019-04-29T20:58:06.423Z,16.56
2019-04-29T21:00:38.229Z,16.60
2019-04-29T21:03:11.162Z,16.63
2019-04-29T21:05:48.277Z,16.64
2019-04-29T21:08:16.463Z,16.62
2019-04-29T21:10:46.429Z,16.56
2019-04-29T21:13:35.243Z,16.56
2019-04-29T21:16:11.561Z,16.42
2019-04-29T21:18:47.478Z,15.91
2019-04-29T21:21:11.194Z,16.14
2019-04-29T21:23:40.717Z,16.27
2019-04-29T21:26:10.205Z,16.39
2019-04-29T21:28:41.810Z,16.53
2019-04-29T21:31:11.792Z,16.16
2019-04-29T21:33:45.582Z,16.19
2019-04-29T21:36:20.909Z,16.14
2019-04-29T21:39:09.059Z,16.10
2019-04-29T21:41:45.779Z,16.17
2019-04-29T21:44:16.052Z,16.18
2019-04-29T21:46:45.439Z,16.16
2019-04-29T21:49:17.363Z,16.30
2019-04-29T21:51:49.829Z,16.39
2019-04-29T21:54:19.961Z,16.37
2019-04-29T21:56:55.493Z,16.29
2019-04-29T21:59:25.826Z,16.21
2019-04-29T22:01:56.184Z,16.16
2019-04-29T22:04:28.572Z,16.37
2019-04-29T22:06:59.797Z,16.23
2019-04-29T22:09:36.166Z,16.14
2019-04-29T22:12:02.732Z,16.30
2019-04-29T22:14:34.571Z,16.29
2019-04-29T22:17:05.360Z,16.42
2019-04-29T22:19:35.191Z,16.49
2019-04-29T22:22:05.768Z,16.39
2019-04-29T22:24:37.740Z,16.29
2019-04-29T22:27:08.343Z,16.65
2019-04-29T22:29:39.381Z,16.73
2019-04-29T22:32:15.198Z,16.55
2019-04-29T22:34:40.539Z,16.56
2019-04-29T22:37:10.946Z,16.62
2019-04-29T22:39:40.467Z,16.71
2019-04-29T22:42:17.086Z,16.56
2019-04-29T22:44:47.611Z,16.54
2019-04-29T22:47:23.463Z,16.68
2019-04-29T22:49:50.087Z,16.74
2019-04-29T22:52:25.558Z,16.59
2019-04-29T22:55:01.556Z,16.57
2019-04-29T22:57:31.947Z,16.64
2019-04-29T23:00:05.025Z,16.36
2019-04-29T23:02:35.788Z,16.40
2019-04-29T23:05:06.444Z,16.60
2019-04-29T23:07:37.696Z,16.61
2019-04-29T23:10:10.462Z,16.55
2019-04-29T23:12:41.068Z,16.51
2019-04-29T23:15:15.078Z,16.62
2019-04-29T23:17:47.456Z,16.46
2019-04-29T23:20:29.053Z,16.42
2019-04-29T23:23:00.243Z,16.53
2019-04-29T23:25:35.438Z,16.82
2019-04-29T23:28:05.028Z,16.89
2019-04-29T23:30:35.432Z,16.57
2019-04-29T23:33:05.016Z,16.71
2019-04-29T23:35:39.932Z,16.52
2019-04-29T23:38:10.084Z,16.74
2019-04-29T23:40:41.967Z,16.84
2019-04-29T23:43:12.355Z,16.86
2019-04-29T23:45:45.008Z,16.66
2019-04-29T23:48:14.366Z,16.64
2019-04-29T23:50:45.462Z,16.47
2019-04-29T23:53:16.078Z,16.38
2019-04-29T23:55:46.689Z,16.47
2019-04-29T23:58:24.710Z,16.81
